Time;durP1;ratioP1;P1;durP2;ratioP2;P2;SDS_P1;SDS_P2;PMS_P1;PMS_P2;Temp;Humidity;BMP_temperature;BMP_pressure;BME280_temperature;BME280_humidity;BME280_pressure;Samples;Min_cycle;Max_cycle;Signal;HPM_P1;HPM_P2
2022/05/18 00:00:05;;;;;;;10.70;7.13;;;16.50;80.50;;;;;;5014727;28;20084;-24
2022/05/18 00:02:31;;;;;;;10.90;6.45;;;16.40;92.30;;;;;;5014362;28;20112;-24
2022/05/18 00:04:56;;;;;;;14.23;6.53;;;16.30;99.90;;;;;;5013792;28;20041;-24
2022/05/18 00:07:22;;;;;;;11.23;7.32;;;16.30;99.90;;;;;;5017982;28;20049;-24
2022/05/18 00:09:50;;;;;;;14.07;7.35;;;16.30;99.90;;;;;;5030214;28;20033;-24
2022/05/18 00:12:17;;;;;;;13.27;8.20;;;16.10;99.90;;;;;;5016989;28;20078;-24
2022/05/18 00:14:44;;;;;;;10.57;7.05;;;16.10;99.90;;;;;;5014095;28;20053;-24
2022/05/18 00:17:10;;;;;;;13.07;6.70;;;16.10;99.90;;;;;;4980474;28;20103;-24
2022/05/18 00:19:36;;;;;;;12.90;7.47;;;16.10;99.90;;;;;;5012575;28;20057;-24
2022/05/18 00:22:02;;;;;;;8.50;6.72;;;16.00;99.90;;;;;;5014444;28;20116;-24
2022/05/18 00:24:28;;;;;;;8.77;7.13;;;16.00;99.90;;;;;;5028784;28;20100;-24
2022/05/18 00:26:53;;;;;;;10.05;7.40;;;16.00;99.90;;;;;;5012953;28;20054;-24
2022/05/18 00:29:19;;;;;;;10.55;6.88;;;15.90;99.90;;;;;;5013135;28;20085;-24
2022/05/18 00:31:48;;;;;;;10.13;7.97;;;15.90;99.90;;;;;;5014346;28;20052;-24
2022/05/18 00:34:16;;;;;;;11.75;7.28;;;15.90;99.90;;;;;;5013396;28;20057;-24
2022/05/18 00:36:42;;;;;;;11.95;6.47;;;15.90;99.90;;;;;;5028961;28;20064;-24
2022/05/18 00:39:08;;;;;;;9.75;6.78;;;15.80;99.90;;;;;;5012706;28;20452;-24
2022/05/18 00:41:35;;;;;;;10.85;7.35;;;15.80;99.90;;;;;;5012330;28;20042;-24
2022/05/18 00:44:01;;;;;;;10.45;6.72;;;15.70;99.90;;;;;;5013295;28;20045;-24
2022/05/18 00:46:27;;;;;;;10.32;6.80;;;15.70;99.90;;;;;;5012281;28;20050;-24
2022/05/18 00:48:54;;;;;;;13.23;7.72;;;15.60;99.90;;;;;;5012235;28;20473;-24
2022/05/18 00:51:24;;;;;;;9.40;6.22;;;15.70;99.90;;;;;;5013923;28;20049;-24
2022/05/18 00:54:11;;;;;;;9.38;6.68;;;15.60;99.90;;;;;;5013789;28;20050;-24
2022/05/18 00:56:47;;;;;;;13.02;7.03;;;15.50;99.90;;;;;;5013535;28;20046;-24
2022/05/18 00:59:18;;;;;;;10.57;7.28;;;15.50;99.90;;;;;;5013254;28;20193;-24
2022/05/18 01:01:44;;;;;;;10.27;7.35;;;15.50;99.90;;;;;;5013926;28;20375;-24
2022/05/18 01:04:13;;;;;;;12.55;7.70;;;15.50;99.90;;;;;;5013683;28;20137;-27
2022/05/18 01:06:45;;;;;;;12.07;7.95;;;15.40;99.90;;;;;;5013782;28;20050;-24
2022/05/18 01:09:17;;;;;;;10.20;7.38;;;15.50;99.90;;;;;;5013999;28;20054;-24
2022/05/18 01:11:42;;;;;;;15.23;8.23;;;15.40;99.90;;;;;;5013527;28;20511;-24
2022/05/18 01:14:16;;;;;;;15.27;7.30;;;15.30;99.90;;;;;;5016652;28;20077;-24
2022/05/18 01:16:42;;;;;;;10.55;7.78;;;15.30;99.90;;;;;;5013867;28;20092;-24
2022/05/18 01:19:19;;;;;;;11.75;7.07;;;15.30;99.90;;;;;;5013460;28;20081;-24
2022/05/18 01:21:56;;;;;;;10.32;8.10;;;15.30;99.90;;;;;;5012220;28;20085;-24
2022/05/18 01:24:38;;;;;;;14.10;7.45;;;15.30;99.90;;;;;;5013835;28;20408;-24
2022/05/18 01:27:05;;;;;;;12.05;8.13;;;15.30;99.90;;;;;;5016243;28;20046;-24
2022/05/18 01:29:32;;;;;;;13.68;8.00;;;15.30;99.90;;;;;;5014652;28;20103;-24
2022/05/18 01:32:03;;;;;;;8.90;7.47;;;15.30;99.90;;;;;;5017065;28;20048;-24
2022/05/18 01:34:33;;;;;;;13.15;8.00;;;15.20;99.90;;;;;;5017227;28;20443;-24
2022/05/18 01:36:59;;;;;;;9.75;7.50;;;15.20;99.90;;;;;;5023252;28;20116;-24
2022/05/18 01:39:33;;;;;;;10.02;7.60;;;15.10;1.00;;;;;;5024310;28;20050;-24
2022/05/18 01:42:27;;;;;;;18.20;9.85;;;15.10;1.00;;;;;;5017449;28;20069;-24
2022/05/18 01:44:53;;;;;;;13.40;8.23;;;15.10;1.00;;;;;;5015967;28;20049;-25
2022/05/18 01:47:19;;;;;;;13.65;8.02;;;15.00;1.00;;;;;;5016266;28;20441;-24
2022/05/18 01:49:46;;;;;;;12.77;8.15;;;15.00;1.00;;;;;;5016045;28;20038;-24
2022/05/18 01:52:11;;;;;;;12.88;8.30;;;14.90;1.00;;;;;;5014834;28;20121;-25
2022/05/18 01:54:43;;;;;;;10.82;7.75;;;15.00;1.00;;;;;;5012712;28;20212;-24
2022/05/18 01:57:09;;;;;;;10.88;7.43;;;15.00;1.00;;;;;;5016330;28;20045;-25
2022/05/18 01:59:36;;;;;;;13.20;8.35;;;14.90;1.00;;;;;;4998649;28;20132;-24
2022/05/18 02:02:04;;;;;;;10.73;7.75;;;14.90;1.00;;;;;;5018587;28;20037;-24
2022/05/18 02:04:32;;;;;;;10.07;7.80;;;14.90;1.00;;;;;;5014761;28;20057;-23
2022/05/18 02:07:01;;;;;;;11.88;8.50;;;14.90;1.00;;;;;;5019974;28;20120;-23
2022/05/18 02:09:28;;;;;;;12.98;8.88;;;14.80;1.00;;;;;;5028852;28;20102;-24
2022/05/18 02:11:54;;;;;;;12.27;8.10;;;14.90;1.00;;;;;;5026020;28;20057;-24
2022/05/18 02:14:21;;;;;;;14.95;8.75;;;14.70;1.00;;;;;;5015729;28;20046;-24
2022/05/18 02:16:47;;;;;;;11.77;9.02;;;14.70;1.00;;;;;;5016841;28;20484;-24
2022/05/18 02:19:13;;;;;;;12.55;9.30;;;14.60;1.00;;;;;;5016175;28;20057;-25
2022/05/18 02:21:39;;;;;;;12.10;8.70;;;14.70;9.40;;;;;;5015341;28;20394;-24
2022/05/18 02:24:05;;;;;;;11.77;9.05;;;14.50;74.50;;;;;;5016440;28;20081;-24
2022/05/18 02:26:31;;;;;;;13.63;9.32;;;14.40;95.50;;;;;;5015264;28;20077;-23
2022/05/18 02:28:57;;;;;;;12.93;9.57;;;14.30;99.90;;;;;;5016710;28;20046;-24
2022/05/18 02:31:22;;;;;;;10.10;8.38;;;14.40;99.90;;;;;;5025575;28;20113;-24
2022/05/18 02:33:48;;;;;;;12.77;8.93;;;14.30;99.90;;;;;;5014883;28;20501;-24
2022/05/18 02:36:14;;;;;;;13.60;9.00;;;14.30;99.90;;;;;;5014266;28;20069;-24
2022/05/18 02:38:41;;;;;;;13.50;9.63;;;14.30;99.90;;;;;;5020607;28;20073;-23
2022/05/18 02:41:07;;;;;;;11.93;9.38;;;14.20;99.90;;;;;;5024518;28;20038;-24
2022/05/18 02:43:40;;;;;;;12.23;9.90;;;14.20;99.90;;;;;;5015236;28;20045;-24
2022/05/18 02:46:16;;;;;;;11.33;9.30;;;14.20;99.90;;;;;;5015306;28;20068;-24
2022/05/18 02:48:43;;;;;;;13.50;9.27;;;14.10;99.90;;;;;;5016482;28;20821;-25
2022/05/18 02:51:09;;;;;;;13.25;9.15;;;14.20;99.90;;;;;;5013841;28;20049;-23
2022/05/18 02:53:36;;;;;;;10.02;8.73;;;14.10;99.90;;;;;;5014999;28;20050;-24
2022/05/18 02:56:06;;;;;;;11.00;9.35;;;14.00;99.90;;;;;;5013720;28;20497;-24
2022/05/18 02:58:40;;;;;;;12.48;9.45;;;13.90;99.90;;;;;;5015384;28;20485;-24
2022/05/18 03:01:13;;;;;;;10.23;8.93;;;13.80;99.90;;;;;;5015152;28;20140;-23
2022/05/18 03:03:39;;;;;;;13.82;9.65;;;13.70;99.90;;;;;;5014909;28;20049;-24
2022/05/18 03:06:08;;;;;;;13.68;9.80;;;13.70;99.90;;;;;;5015024;28;20049;-23
2022/05/18 03:08:36;;;;;;;13.95;9.80;;;13.50;99.90;;;;;;5014873;28;20053;-24
2022/05/18 03:11:02;;;;;;;14.90;10.15;;;13.50;99.90;;;;;;5018273;28;20049;-24
2022/05/18 03:13:28;;;;;;;15.77;9.48;;;13.50;99.90;;;;;;5013973;28;20049;-24
2022/05/18 03:15:54;;;;;;;20.00;9.93;;;13.50;99.90;;;;;;5014626;28;20045;-24
2022/05/18 03:18:20;;;;;;;12.55;10.05;;;13.40;99.90;;;;;;5014497;28;20533;-23
2022/05/18 03:23:33;;;;;;;13.82;9.20;;;13.50;99.90;;;;;;5014837;28;20050;-24
2022/05/18 03:26:03;;;;;;;15.73;10.85;;;13.50;99.90;;;;;;5014471;28;20081;-24
2022/05/18 03:28:29;;;;;;;11.90;9.18;;;13.50;99.90;;;;;;5013904;28;20053;-24
2022/05/18 03:30:55;;;;;;;14.95;9.65;;;13.50;1.00;;;;;;5013798;28;20397;-24
2022/05/18 03:33:22;;;;;;;10.52;8.43;;;13.50;1.00;;;;;;5019672;28;20095;-24
2022/05/18 03:35:48;;;;;;;17.50;10.00;;;13.50;1.00;;;;;;5029656;28;20076;-24
2022/05/18 03:38:15;;;;;;;12.55;8.57;;;13.60;1.00;;;;;;5014281;28;20050;-24
2022/05/18 03:40:41;;;;;;;10.45;8.82;;;13.60;1.00;;;;;;5000385;28;20052;-24
2022/05/18 03:43:07;;;;;;;13.93;8.77;;;13.60;1.00;;;;;;5017550;28;20045;-24
2022/05/18 03:45:33;;;;;;;11.70;8.95;;;13.60;1.00;;;;;;5024869;28;20049;-23
2022/05/18 03:48:00;;;;;;;16.70;9.45;;;13.60;1.00;;;;;;5029544;28;20045;-24
2022/05/18 03:50:28;;;;;;;15.50;9.20;;;13.60;1.00;;;;;;5012798;28;20046;-23
2022/05/18 03:52:55;;;;;;;19.50;10.25;;;13.60;1.00;;;;;;5014212;28;20428;-24
2022/05/18 03:55:21;;;;;;;12.50;9.15;;;13.60;1.00;;;;;;5013857;28;20053;-24
2022/05/18 03:57:47;;;;;;;11.70;9.00;;;13.60;1.00;;;;;;5013658;28;20108;-24
2022/05/18 04:00:13;;;;;;;16.00;9.85;;;13.60;1.00;;;;;;4996190;28;20046;-24
2022/05/18 04:02:40;;;;;;;13.85;8.63;;;13.60;1.00;;;;;;4981291;28;20108;-24
2022/05/18 04:05:08;;;;;;;13.32;9.00;;;13.60;1.00;;;;;;5013553;28;20401;-24
2022/05/18 04:07:34;;;;;;;13.18;10.02;;;13.60;1.00;;;;;;5014358;28;20111;-24
2022/05/18 04:10:00;;;;;;;14.65;8.57;;;13.60;1.00;;;;;;5026880;28;20481;-24
2022/05/18 04:12:29;;;;;;;15.45;8.65;;;13.60;1.00;;;;;;5017515;28;20042;-24
2022/05/18 04:14:55;;;;;;;11.63;8.65;;;13.60;1.00;;;;;;5014336;28;20057;-23
2022/05/18 04:17:22;;;;;;;12.15;8.82;;;13.60;1.00;;;;;;5013447;28;20049;-23
2022/05/18 04:19:48;;;;;;;13.25;9.63;;;13.70;1.00;;;;;;5012882;28;20114;-24
2022/05/18 04:22:13;;;;;;;13.77;8.98;;;13.70;1.00;;;;;;5012743;28;20042;-23
2022/05/18 04:24:39;;;;;;;17.02;9.02;;;13.70;1.00;;;;;;5018174;28;20064;-24
2022/05/18 04:27:07;;;;;;;13.48;8.30;;;13.80;1.00;;;;;;5020520;28;20052;-24
2022/05/18 04:29:34;;;;;;;11.40;8.88;;;13.90;1.00;;;;;;5013552;28;20048;-24
2022/05/18 04:31:59;;;;;;;10.80;8.73;;;13.80;1.00;;;;;;5012884;28;20049;-24
2022/05/18 04:34:26;;;;;;;11.10;7.85;;;13.90;1.00;;;;;;5013774;28;20045;-24
2022/05/18 04:36:52;;;;;;;11.77;8.93;;;14.10;1.00;;;;;;5013744;28;20503;-26
2022/05/18 04:39:18;;;;;;;11.65;9.43;;;14.00;1.00;;;;;;5012532;28;20077;-24
2022/05/18 04:41:43;;;;;;;13.32;8.77;;;14.10;1.00;;;;;;5013163;28;20042;-24
2022/05/18 04:44:09;;;;;;;13.13;8.68;;;14.10;1.00;;;;;;5015916;28;20042;-24
2022/05/18 04:46:35;;;;;;;14.85;8.32;;;14.20;1.00;;;;;;5015690;28;20122;-24
2022/05/18 04:49:01;;;;;;;8.50;7.13;;;14.30;1.00;;;;;;5023697;28;20057;-24
2022/05/18 04:51:27;;;;;;;11.00;7.85;;;14.30;1.00;;;;;;5017101;28;20383;-24
2022/05/18 04:53:53;;;;;;;17.00;8.23;;;14.40;1.00;;;;;;5012499;28;20100;-24
2022/05/18 04:56:19;;;;;;;9.65;7.63;;;14.50;1.00;;;;;;5019105;28;20041;-24
2022/05/18 04:58:45;;;;;;;11.90;8.07;;;14.60;99.90;;;;;;5015875;28;20061;-23
2022/05/18 05:01:11;;;;;;;12.82;7.75;;;14.70;99.90;;;;;;5019516;28;20057;-27
2022/05/18 05:03:38;;;;;;;10.63;7.38;;;14.90;99.90;;;;;;5017208;28;20042;-24
2022/05/18 05:06:05;;;;;;;11.63;8.23;;;14.80;99.90;;;;;;5017124;28;20053;-24
2022/05/18 05:08:31;;;;;;;11.88;8.38;;;14.90;99.90;;;;;;5017135;28;20054;-25
2022/05/18 05:10:57;;;;;;;11.55;7.75;;;15.10;99.90;;;;;;5017394;28;20041;-23
2022/05/18 05:13:23;;;;;;;10.38;8.25;;;15.10;99.90;;;;;;5020548;28;20100;-24
2022/05/18 05:15:54;;;;;;;10.52;8.55;;;15.20;99.90;;;;;;5017426;28;20046;-24
2022/05/18 05:18:21;;;;;;;17.40;8.98;;;15.20;99.90;;;;;;5018593;28;20057;-24
2022/05/18 05:20:46;;;;;;;14.38;8.57;;;15.30;99.90;;;;;;5017335;28;20379;-24
2022/05/18 05:23:12;;;;;;;13.85;8.57;;;15.50;99.90;;;;;;5017225;28;20133;-24
2022/05/18 05:25:38;;;;;;;13.50;7.97;;;15.90;99.90;;;;;;5016869;28;20071;-24
2022/05/18 05:28:08;;;;;;;12.40;8.20;;;16.70;99.90;;;;;;5020831;28;20132;-24
2022/05/18 05:30:36;;;;;;;13.82;9.43;;;17.30;59.90;;;;;;5024689;28;20046;-24
2022/05/18 05:33:01;;;;;;;13.40;8.68;;;17.60;99.90;;;;;;5017046;28;20057;-24
2022/05/18 05:35:27;;;;;;;11.07;7.93;;;18.30;99.90;;;;;;5015045;28;20046;-24
2022/05/18 05:37:53;;;;;;;9.65;7.40;;;18.80;66.00;;;;;;5001665;28;20041;-24
2022/05/18 05:40:18;;;;;;;12.35;8.32;;;19.30;1.00;;;;;;5017029;28;20037;-24
2022/05/18 05:42:44;;;;;;;12.38;8.38;;;19.60;1.00;;;;;;5016178;28;20128;-24
2022/05/18 05:45:10;;;;;;;11.73;7.32;;;20.00;99.90;;;;;;5016316;28;20426;-24
2022/05/18 05:47:36;;;;;;;9.57;8.23;;;20.40;99.90;;;;;;5016682;28;20081;-24
2022/05/18 05:50:03;;;;;;;12.18;7.88;;;20.70;99.90;;;;;;5015813;28;20042;-24
2022/05/18 05:52:29;;;;;;;13.70;7.75;;;20.90;99.90;;;;;;5026006;28;20516;-24
2022/05/18 05:54:54;;;;;;;13.75;8.32;;;21.10;99.90;;;;;;5023412;28;20061;-24
2022/05/18 05:57:20;;;;;;;10.52;7.88;;;21.20;99.90;;;;;;5016581;28;20054;-24
2022/05/18 05:59:46;;;;;;;12.73;7.43;;;21.40;98.20;;;;;;5018272;28;20050;-25
2022/05/18 06:02:15;;;;;;;12.70;7.95;;;21.40;59.30;;;;;;5016623;28;20057;-24
2022/05/18 06:04:41;;;;;;;10.73;7.82;;;21.70;27.60;;;;;;5000529;28;20050;-24
2022/05/18 06:07:06;;;;;;;10.50;7.55;;;21.80;1.00;;;;;;5016481;28;20547;-24
2022/05/18 06:09:32;;;;;;;13.55;8.00;;;21.80;1.00;;;;;;5022227;28;20049;-24
2022/05/18 06:11:58;;;;;;;11.35;8.23;;;22.00;1.00;;;;;;5020675;28;20041;-25
2022/05/18 06:14:24;;;;;;;10.25;7.57;;;22.20;1.00;;;;;;5021855;28;20048;-25
2022/05/18 06:16:50;;;;;;;11.35;7.75;;;22.20;1.00;;;;;;5020912;28;20124;-24
2022/05/18 06:19:17;;;;;;;13.05;9.27;;;22.50;1.00;;;;;;5020358;28;20042;-24
2022/05/18 06:21:43;;;;;;;11.55;7.68;;;22.60;1.00;;;;;;5025343;28;20046;-24
2022/05/18 06:24:10;;;;;;;10.45;7.30;;;22.70;1.00;;;;;;5021233;28;20081;-24
2022/05/18 06:26:36;;;;;;;17.60;10.00;;;22.90;1.00;;;;;;5035793;28;20056;-24
2022/05/18 06:29:03;;;;;;;13.35;8.07;;;22.90;1.00;;;;;;5036654;28;20048;-24
2022/05/18 06:31:29;;;;;;;15.05;7.95;;;23.10;1.00;;;;;;5034244;28;20049;-24
2022/05/18 06:33:55;;;;;;;12.55;8.80;;;23.20;1.00;;;;;;5035817;28;20041;-24
2022/05/18 06:36:21;;;;;;;8.70;7.63;;;23.40;1.00;;;;;;5035617;28;20115;-24
2022/05/18 06:38:46;;;;;;;11.07;7.88;;;23.50;1.00;;;;;;5033637;28;20099;-24
2022/05/18 06:41:21;;;;;;;13.68;8.50;;;23.70;99.90;;;;;;5034501;28;20081;-24
2022/05/18 06:44:00;;;;;;;12.70;9.38;;;23.60;99.90;;;;;;5036216;28;20118;-24
2022/05/18 06:46:27;;;;;;;15.88;9.95;;;23.80;99.90;;;;;;5036710;28;20065;-25
2022/05/18 06:48:54;;;;;;;16.35;10.25;;;24.00;99.90;;;;;;5025901;28;20591;-25
2022/05/18 06:51:28;;;;;;;19.63;10.05;;;24.50;99.90;;;;;;5026493;28;20037;-24
2022/05/18 06:53:55;;;;;;;17.08;10.50;;;24.10;99.90;;;;;;5032132;28;20054;-24
2022/05/18 06:56:23;;;;;;;12.73;10.60;;;24.00;99.90;;;;;;5031027;28;20131;-24
2022/05/18 06:58:50;;;;;;;13.98;10.43;;;24.20;99.90;;;;;;5015424;28;20129;-24
2022/05/18 07:01:17;;;;;;;13.55;9.48;;;24.70;99.90;;;;;;5014863;28;20096;-24
2022/05/18 07:03:44;;;;;;;14.70;10.10;;;24.90;99.90;;;;;;5015102;28;20460;-24
2022/05/18 07:06:11;;;;;;;14.70;9.93;;;24.90;99.90;;;;;;5026087;28;20053;-24
2022/05/18 07:08:37;;;;;;;12.75;10.18;;;24.90;99.90;;;;;;5028276;28;20129;-25
2022/05/18 07:11:04;;;;;;;15.45;10.35;;;25.30;99.90;;;;;;5023117;28;20050;-24
2022/05/18 07:13:31;;;;;;;13.77;10.50;;;25.30;99.90;;;;;;5034235;28;20049;-24
2022/05/18 07:15:58;;;;;;;11.20;9.60;;;25.50;99.90;;;;;;5018820;28;20042;-24
2022/05/18 07:18:29;;;;;;;14.25;10.07;;;25.50;99.90;;;;;;5014181;28;20048;-24
2022/05/18 07:20:59;;;;;;;12.57;10.65;;;25.60;99.90;;;;;;5015149;28;20046;-24
2022/05/18 07:23:25;;;;;;;17.13;10.55;;;25.30;99.90;;;;;;5027981;28;20132;-24
2022/05/18 07:25:52;;;;;;;16.20;10.45;;;25.50;99.90;;;;;;5033438;28;20065;-24
2022/05/18 07:28:18;;;;;;;16.13;11.07;;;25.50;99.90;;;;;;5034723;28;20053;-24
2022/05/18 07:30:44;;;;;;;16.60;10.25;;;25.90;99.90;;;;;;5034634;28;20041;-24
2022/05/18 07:33:10;;;;;;;17.45;10.35;;;26.40;99.90;;;;;;5026725;28;20042;-25
2022/05/18 07:35:36;;;;;;;13.70;10.50;;;26.20;99.90;;;;;;5013882;28;20081;-24
2022/05/18 07:38:02;;;;;;;11.80;10.38;;;26.30;99.90;;;;;;5015319;28;20088;-25
2022/05/18 07:40:28;;;;;;;16.13;9.98;;;26.90;99.90;;;;;;5015314;28;20463;-24
2022/05/18 07:42:56;;;;;;;11.88;8.02;;;26.90;99.80;;;;;;5014955;28;20041;-28
2022/05/18 07:45:23;;;;;;;15.60;11.43;;;26.70;90.30;;;;;;5014347;28;20050;-25
2022/05/18 07:47:52;;;;;;;12.52;8.23;;;26.40;63.80;;;;;;5014588;28;20046;-25
2022/05/18 07:50:19;;;;;;;13.60;8.00;;;26.10;1.00;;;;;;5014527;28;20552;-25
2022/05/18 07:52:45;;;;;;;12.68;8.60;;;25.80;1.00;;;;;;5014516;28;20482;-24
2022/05/18 07:55:11;;;;;;;10.68;8.07;;;25.50;1.00;;;;;;5015793;28;20056;-24
2022/05/18 07:57:37;;;;;;;12.23;8.68;;;25.60;1.00;;;;;;5013017;28;20120;-25
2022/05/18 08:00:04;;;;;;;16.83;9.18;;;25.90;1.00;;;;;;5022718;28;20038;-24
2022/05/18 08:02:32;;;;;;;15.95;9.88;;;26.00;1.00;;;;;;5034107;28;20144;-24
2022/05/18 08:04:58;;;;;;;12.13;8.25;;;26.10;1.00;;;;;;5026378;28;20505;-24
2022/05/18 08:07:24;;;;;;;13.98;8.55;;;25.90;1.00;;;;;;5034006;28;20044;-24
2022/05/18 08:15:20;;;;;;;9.52;7.93;;;26.60;1.00;;;;;;5033960;28;20567;-25
2022/05/18 08:17:46;;;;;;;12.40;7.05;;;26.50;1.00;;;;;;5017243;28;20053;-25
2022/05/18 08:20:18;;;;;;;10.85;6.78;;;26.70;1.00;;;;;;5017571;28;20099;-25
2022/05/18 08:22:44;;;;;;;7.07;5.78;;;26.80;99.90;;;;;;5033937;28;20049;-26
2022/05/18 08:25:11;;;;;;;7.60;5.28;;;27.00;99.90;;;;;;5033845;28;20061;-25
2022/05/18 08:27:45;;;;;;;10.02;6.50;;;26.90;99.90;;;;;;5034528;28;20049;-25
2022/05/18 08:30:14;;;;;;;9.35;6.03;;;27.10;99.90;;;;;;5034264;28;20051;-25
2022/05/18 08:32:40;;;;;;;9.13;6.75;;;26.80;99.90;;;;;;5034255;28;20092;-25
2022/05/18 08:35:08;;;;;;;8.95;5.80;;;26.90;99.90;;;;;;5033799;28;20049;-25
2022/05/18 08:37:43;;;;;;;10.98;5.38;;;27.20;99.90;;;;;;5023935;28;20045;-25
2022/05/18 08:40:24;;;;;;;8.55;5.35;;;27.00;99.90;;;;;;5013938;28;20041;-25
2022/05/18 08:42:50;;;;;;;7.00;5.18;;;26.80;99.90;;;;;;5014827;28;20056;-25
2022/05/18 08:45:15;;;;;;;11.43;4.63;;;26.70;99.90;;;;;;5017270;28;20121;-25
2022/05/18 08:47:46;;;;;;;7.65;4.95;;;26.50;99.90;;;;;;5031893;28;20508;-25
2022/05/18 08:50:16;;;;;;;9.27;5.22;;;26.60;99.90;;;;;;5033065;28;20448;-25
2022/05/18 08:53:02;;;;;;;6.63;4.13;;;26.90;99.90;;;;;;5033483;28;20045;-25
2022/05/18 08:55:38;;;;;;;10.93;5.22;;;27.20;99.90;;;;;;5033797;28;20064;-25
2022/05/18 08:58:30;;;;;;;8.63;6.00;;;27.60;99.90;;;;;;5023048;28;20041;-25
2022/05/18 09:01:00;;;;;;;7.82;4.93;;;27.80;99.90;;;;;;5033722;28;20477;-25
2022/05/18 09:03:52;;;;;;;7.72;4.45;;;27.90;99.90;;;;;;5033419;28;20137;-25
2022/05/18 09:06:20;;;;;;;7.80;4.75;;;27.80;99.90;;;;;;5033985;28;20052;-25
2022/05/18 09:10:12;;;;;;;9.35;5.22;;;27.60;99.90;;;;;;5018215;28;20049;-26
2022/05/18 09:11:40;;;;;;;8.13;5.68;;;27.50;99.90;;;;;;5014308;28;20065;-25
2022/05/18 09:14:09;;;;;;;8.85;4.80;;;27.70;99.90;;;;;;5013522;28;20050;-25
2022/05/18 09:16:53;;;;;;;15.75;6.55;;;27.90;99.90;;;;;;5013502;28;20049;-25
2022/05/18 09:19:42;;;;;;;8.02;5.43;;;27.80;99.90;;;;;;5027570;28;20050;-25
2022/05/18 09:22:25;;;;;;;10.07;6.78;;;27.60;99.90;;;;;;5023156;28;20049;-25
2022/05/18 09:25:29;;;;;;;11.40;6.63;;;27.50;99.90;;;;;;5014169;28;20062;-25
2022/05/18 09:28:29;;;;;;;8.68;5.65;;;27.10;99.90;;;;;;5013301;28;20078;-25
2022/05/18 09:31:11;;;;;;;9.80;5.25;;;27.20;99.90;;;;;;5012804;28;20536;-24
2022/05/18 09:33:37;;;;;;;;;;;26.80;99.90;;;;;;5029040;28;20042;-25
2022/05/18 09:36:05;;;;;;;11.40;6.47;;;26.80;99.90;;;;;;5013496;28;19921;-25
2022/05/18 09:38:37;;;;;;;11.13;6.30;;;27.30;99.90;;;;;;5011946;28;20050;-25
2022/05/18 09:41:09;;;;;;;9.07;5.78;;;27.50;99.90;;;;;;5013586;28;20046;-25
2022/05/18 09:43:58;;;;;;;8.68;5.80;;;27.90;99.90;;;;;;5012762;28;20117;-25
2022/05/18 09:46:27;;;;;;;10.75;7.50;;;28.20;99.90;;;;;;5028546;28;20120;-25
2022/05/18 09:49:03;;;;;;;9.45;6.53;;;28.00;99.90;;;;;;5029843;28;20046;-27
2022/05/18 09:51:29;;;;;;;13.98;8.45;;;28.00;99.90;;;;;;5027701;28;20100;-25
2022/05/18 09:53:58;;;;;;;11.68;6.65;;;27.90;99.90;;;;;;5016164;28;20049;-25
2022/05/18 09:56:39;;;;;;;13.02;8.02;;;27.90;99.90;;;;;;5022160;28;20099;-25
2022/05/18 09:59:20;;;;;;;13.52;9.23;;;27.90;99.90;;;;;;5025175;28;20073;-25
2022/05/18 10:07:28;;;;;;;14.35;9.25;;;28.00;99.90;;;;;;5019916;28;20096;-25
2022/05/18 10:10:11;;;;;;;14.20;9.35;;;28.10;99.90;;;;;;5020806;28;20038;-26
2022/05/18 10:12:39;;;;;;;21.15;10.48;;;27.90;99.90;;;;;;5016796;28;20056;-25
2022/05/18 10:15:29;;;;;;;16.45;10.70;;;27.60;99.90;;;;;;5016621;28;20042;-25
2022/05/18 10:18:09;;;;;;;20.10;10.95;;;27.30;99.90;;;;;;5015111;28;20480;-25
2022/05/18 10:20:36;;;;;;;15.02;10.10;;;27.50;99.90;;;;;;5016238;28;20045;-25
2022/05/18 10:23:03;;;;;;;12.02;8.05;;;27.70;99.90;;;;;;5014652;28;20056;-26
2022/05/18 10:25:48;;;;;;;16.60;10.48;;;27.80;99.90;;;;;;5015260;28;20057;-25
2022/05/18 10:28:27;;;;;;;12.48;9.57;;;28.00;99.90;;;;;;5013892;28;20053;-25
2022/05/18 10:30:54;;;;;;;13.80;9.07;;;27.80;99.90;;;;;;5025781;28;20046;-25
2022/05/18 10:33:22;;;;;;;13.23;7.95;;;28.10;99.90;;;;;;5027326;28;20056;-25
2022/05/18 10:35:51;;;;;;;15.70;10.35;;;28.00;99.90;;;;;;5035764;28;20088;-25
2022/05/18 10:38:28;;;;;;;12.27;9.35;;;28.20;99.90;;;;;;5036322;28;20077;-25
2022/05/18 10:41:08;;;;;;;10.63;7.78;;;28.40;99.90;;;;;;5035290;28;20560;-25
2022/05/18 10:43:38;;;;;;;14.55;9.98;;;28.70;99.90;;;;;;5026783;28;20074;-25
2022/05/18 10:46:20;;;;;;;10.43;7.65;;;28.70;99.90;;;;;;5015776;28;20054;-25
2022/05/18 10:48:55;;;;;;;13.98;8.88;;;28.90;99.90;;;;;;5016382;28;20050;-25
2022/05/18 10:51:41;;;;;;;10.95;7.68;;;28.60;99.90;;;;;;5015629;28;20038;-25
2022/05/18 10:54:13;;;;;;;12.90;7.63;;;28.50;99.90;;;;;;5022816;28;20484;-25
2022/05/18 10:56:39;;;;;;;14.87;8.00;;;29.00;99.90;;;;;;5034769;28;20041;-25
2022/05/18 10:59:23;;;;;;;13.38;9.77;;;29.00;99.90;;;;;;5034705;28;20052;-25
2022/05/18 11:02:02;;;;;;;12.65;8.95;;;29.10;99.90;;;;;;5027697;28;20501;-26
2022/05/18 11:04:41;;;;;;;14.55;9.43;;;29.60;99.90;;;;;;5020035;28;20401;-26
2022/05/18 11:07:07;;;;;;;14.02;9.57;;;29.70;99.90;;;;;;5022808;28;20041;-26
2022/05/18 11:09:34;;;;;;;17.08;12.32;;;29.80;99.90;;;;;;5024744;28;20103;-25
2022/05/18 11:12:50;;;;;;;10.80;7.95;;;29.80;99.90;;;;;;5035076;28;20050;-25
2022/05/18 11:15:26;;;;;;;11.13;8.20;;;29.80;99.90;;;;;;5035446;28;20081;-26
2022/05/18 11:18:15;;;;;;;11.02;7.65;;;30.30;97.10;;;;;;5035577;28;20085;-26
2022/05/18 11:20:59;;;;;;;9.90;7.90;;;30.20;94.10;;;;;;5025407;28;20487;-25
2022/05/18 11:23:40;;;;;;;11.60;6.97;;;30.10;57.00;;;;;;5035187;28;20124;-25
2022/05/18 11:26:30;;;;;;;16.75;9.88;;;30.10;70.30;;;;;;5028466;28;20128;-27
2022/05/18 11:29:20;;;;;;;10.57;8.55;;;29.70;81.60;;;;;;5022676;28;20482;-26
2022/05/18 11:32:05;;;;;;;14.55;9.65;;;29.30;99.90;;;;;;5015855;28;20038;-26
2022/05/18 11:34:49;;;;;;;15.63;11.13;;;29.10;99.90;;;;;;5034660;28;20111;-25
2022/05/18 11:37:34;;;;;;;29.05;11.88;;;28.40;99.90;;;;;;5031368;28;20053;-25
2022/05/18 11:40:22;;;;;;;14.32;10.40;;;27.80;99.90;;;;;;5028445;28;20095;-25
2022/05/18 11:42:47;;;;;;;16.85;11.05;;;27.50;99.90;;;;;;5021807;28;20080;-25
2022/05/18 11:45:42;;;;;;;14.75;9.02;;;27.50;99.90;;;;;;5033559;28;20505;-25
2022/05/18 11:48:46;;;;;;;14.73;9.05;;;27.80;99.90;;;;;;5034817;28;20088;-25
2022/05/18 11:51:24;;;;;;;14.93;10.05;;;28.30;99.90;;;;;;5034109;28;20049;-25
2022/05/18 11:54:01;;;;;;;9.55;7.93;;;28.90;99.90;;;;;;5023761;28;20049;-26
2022/05/18 11:56:39;;;;;;;12.75;8.35;;;29.70;99.90;;;;;;5017275;28;20525;-25
2022/05/18 11:59:30;;;;;;;14.30;8.43;;;29.60;99.90;;;;;;5007558;28;20049;-25
2022/05/18 12:02:13;;;;;;;11.10;8.10;;;29.40;99.90;;;;;;5025828;28;20052;-26
2022/05/18 12:05:00;;;;;;;10.43;6.88;;;29.20;99.90;;;;;;5017330;28;20506;-25
2022/05/18 12:07:30;;;;;;;10.13;8.45;;;28.70;99.90;;;;;;5019885;28;20445;-27
2022/05/18 12:10:21;;;;;;;13.07;9.10;;;28.50;99.90;;;;;;5016573;28;20065;-25
2022/05/18 12:12:53;;;;;;;9.00;6.82;;;28.70;99.90;;;;;;5010395;28;20115;-26
2022/05/18 12:15:38;;;;;;;14.48;8.45;;;28.70;99.90;;;;;;5014281;28;20107;-26
2022/05/18 12:18:09;;;;;;;13.00;9.75;;;29.10;99.90;;;;;;5013139;28;20049;-26
2022/05/18 12:20:58;;;;;;;10.80;8.07;;;29.70;99.90;;;;;;5015356;28;20122;-25
2022/05/18 12:23:29;;;;;;;9.20;7.07;;;29.70;99.90;;;;;;5014460;28;20050;-26
2022/05/18 12:25:56;;;;;;;13.15;9.70;;;29.40;99.90;;;;;;5013911;28;20080;-25
2022/05/18 12:28:24;;;;;;;12.80;9.65;;;29.10;99.90;;;;;;5013798;28;20061;-25
2022/05/18 12:30:50;;;;;;;13.85;10.20;;;28.90;99.90;;;;;;5014782;28;20564;-26
2022/05/18 12:33:19;;;;;;;16.40;10.30;;;28.10;99.90;;;;;;5012823;28;20046;-25
2022/05/18 12:36:39;;;;;;;13.48;10.80;;;27.50;99.90;;;;;;5023155;28;20099;-25
2022/05/18 12:39:17;;;;;;;21.00;12.55;;;27.10;1.00;;;;;;5032320;28;20111;-25
2022/05/18 12:41:55;;;;;;;14.75;11.32;;;26.20;1.00;;;;;;5027020;28;20043;-25
2022/05/18 12:44:42;;;;;;;16.15;11.48;;;26.20;55.50;;;;;;5030176;28;20049;-24
2022/05/18 12:47:24;;;;;;;14.48;11.93;;;26.10;1.00;;;;;;5028625;28;20053;-24
2022/05/18 12:50:18;;;;;;;22.63;12.38;;;26.10;58.50;;;;;;5034116;28;20064;-25
2022/05/18 12:52:57;;;;;;;14.57;11.27;;;26.50;41.30;;;;;;5027660;28;20096;-25
2022/05/18 12:55:39;;;;;;;16.83;12.73;;;26.20;1.00;;;;;;5014426;28;20050;-25
2022/05/18 12:58:11;;;;;;;19.23;12.45;;;26.40;74.40;;;;;;5011917;28;20069;-25
2022/05/18 13:00:55;;;;;;;14.90;11.85;;;26.60;1.00;;;;;;5021341;28;20111;-25
2022/05/18 13:03:37;;;;;;;14.48;11.13;;;26.90;1.00;;;;;;5012816;28;20046;-25
2022/05/18 13:06:14;;;;;;;14.45;10.35;;;26.90;1.00;;;;;;5011802;28;20473;-25
2022/05/18 13:08:54;;;;;;;13.20;10.30;;;26.30;1.00;;;;;;5019829;28;20116;-25
2022/05/18 13:11:20;;;;;;;13.43;10.13;;;25.90;1.00;;;;;;5021341;28;20100;-26
2022/05/18 13:14:01;;;;;;;14.43;11.20;;;26.00;59.60;;;;;;5017099;28;20489;-25